sensor_id;sensor_type;location;lat;lon;timestamp;P1;durP1;ratioP1;P2;durP2;ratioP2
19291;SDS011;9779;51.756;7.450;2022-12-29T00:02:09;0.60;;;0.60;;
19291;SDS011;9779;51.756;7.450;2022-12-29T00:04:35;0.50;;;0.50;;
19291;SDS011;9779;51.756;7.450;2022-12-29T00:07:01;0.57;;;0.57;;
19291;SDS011;9779;51.756;7.450;2022-12-29T00:09:29;0.60;;;0.60;;
19291;SDS011;9779;51.756;7.450;2022-12-29T00:11:57;0.50;;;0.50;;
19291;SDS011;9779;51.756;7.450;2022-12-29T00:14:23;0.60;;;0.50;;
19291;SDS011;9779;51.756;7.450;2022-12-29T00:17:07;0.47;;;0.47;;
19291;SDS011;9779;51.756;7.450;2022-12-29T00:19:33;0.67;;;0.50;;
19291;SDS011;9779;51.756;7.450;2022-12-29T00:22:17;0.50;;;0.50;;
19291;SDS011;9779;51.756;7.450;2022-12-29T00:25:02;0.63;;;0.63;;
19291;SDS011;9779;51.756;7.450;2022-12-29T00:27:34;0.87;;;0.70;;
19291;SDS011;9779;51.756;7.450;2022-12-29T00:30:21;0.90;;;0.60;;
19291;SDS011;9779;51.756;7.450;2022-12-29T00:33:14;0.50;;;0.50;;
19291;SDS011;9779;51.756;7.450;2022-12-29T00:36:07;0.50;;;0.40;;
19291;SDS011;9779;51.756;7.450;2022-12-29T00:38:46;3.50;;;0.60;;
19291;SDS011;9779;51.756;7.450;2022-12-29T00:41:33;0.60;;;0.60;;
19291;SDS011;9779;51.756;7.450;2022-12-29T00:44:17;0.60;;;0.60;;
19291;SDS011;9779;51.756;7.450;2022-12-29T00:46:43;0.60;;;0.60;;
19291;SDS011;9779;51.756;7.450;2022-12-29T00:49:10;0.50;;;0.50;;
19291;SDS011;9779;51.756;7.450;2022-12-29T00:51:55;0.60;;;0.50;;
19291;SDS011;9779;51.756;7.450;2022-12-29T00:54:26;1.27;;;0.70;;
19291;SDS011;9779;51.756;7.450;2022-12-29T00:56:53;2.33;;;0.60;;
19291;SDS011;9779;51.756;7.450;2022-12-29T00:59:19;3.33;;;0.70;;
19291;SDS011;9779;51.756;7.450;2022-12-29T01:01:45;0.67;;;0.67;;
19291;SDS011;9779;51.756;7.450;2022-12-29T01:04:12;0.43;;;0.43;;
19291;SDS011;9779;51.756;7.450;2022-12-29T01:06:38;0.40;;;0.40;;
19291;SDS011;9779;51.756;7.450;2022-12-29T01:09:05;0.50;;;0.50;;
19291;SDS011;9779;51.756;7.450;2022-12-29T01:11:50;0.47;;;0.47;;
19291;SDS011;9779;51.756;7.450;2022-12-29T01:14:16;1.03;;;0.50;;
19291;SDS011;9779;51.756;7.450;2022-12-29T01:16:42;0.70;;;0.70;;
19291;SDS011;9779;51.756;7.450;2022-12-29T01:19:08;0.57;;;0.57;;
19291;SDS011;9779;51.756;7.450;2022-12-29T01:21:34;0.77;;;0.60;;
19291;SDS011;9779;51.756;7.450;2022-12-29T01:24:00;0.70;;;0.60;;
19291;SDS011;9779;51.756;7.450;2022-12-29T01:26:26;0.50;;;0.50;;
19291;SDS011;9779;51.756;7.450;2022-12-29T01:28:51;0.43;;;0.43;;
19291;SDS011;9779;51.756;7.450;2022-12-29T01:31:17;0.53;;;0.53;;
19291;SDS011;9779;51.756;7.450;2022-12-29T01:33:43;0.63;;;0.40;;
19291;SDS011;9779;51.756;7.450;2022-12-29T01:36:10;0.73;;;0.73;;
19291;SDS011;9779;51.756;7.450;2022-12-29T01:38:38;0.60;;;0.60;;
19291;SDS011;9779;51.756;7.450;2022-12-29T01:41:04;0.60;;;0.60;;
19291;SDS011;9779;51.756;7.450;2022-12-29T01:43:45;0.40;;;0.40;;
19291;SDS011;9779;51.756;7.450;2022-12-29T01:46:32;0.50;;;0.50;;
19291;SDS011;9779;51.756;7.450;2022-12-29T01:49:16;4.30;;;0.57;;
19291;SDS011;9779;51.756;7.450;2022-12-29T01:51:49;0.67;;;0.40;;
19291;SDS011;9779;51.756;7.450;2022-12-29T01:54:20;0.67;;;0.50;;
19291;SDS011;9779;51.756;7.450;2022-12-29T01:56:55;0.53;;;0.53;;
19291;SDS011;9779;51.756;7.450;2022-12-29T01:59:24;0.50;;;0.40;;
19291;SDS011;9779;51.756;7.450;2022-12-29T02:01:55;0.50;;;0.50;;
19291;SDS011;9779;51.756;7.450;2022-12-29T02:04:21;0.40;;;0.40;;
19291;SDS011;9779;51.756;7.450;2022-12-29T02:06:51;4.40;;;0.40;;
19291;SDS011;9779;51.756;7.450;2022-12-29T02:09:19;0.40;;;0.40;;
19291;SDS011;9779;51.756;7.450;2022-12-29T02:11:45;0.60;;;0.60;;
19291;SDS011;9779;51.756;7.450;2022-12-29T02:14:13;0.50;;;0.40;;
19291;SDS011;9779;51.756;7.450;2022-12-29T02:16:52;1.23;;;0.50;;
19291;SDS011;9779;51.756;7.450;2022-12-29T02:19:50;0.30;;;0.30;;
19291;SDS011;9779;51.756;7.450;2022-12-29T02:22:39;0.50;;;0.50;;
19291;SDS011;9779;51.756;7.450;2022-12-29T02:36:45;0.40;;;0.40;;
19291;SDS011;9779;51.756;7.450;2022-12-29T02:39:34;2.10;;;0.50;;
19291;SDS011;9779;51.756;7.450;2022-12-29T02:42:09;0.40;;;0.40;;
19291;SDS011;9779;51.756;7.450;2022-12-29T02:47:39;0.30;;;0.30;;
19291;SDS011;9779;51.756;7.450;2022-12-29T02:50:14;0.63;;;0.40;;
19291;SDS011;9779;51.756;7.450;2022-12-29T02:53:01;4.90;;;0.50;;
19291;SDS011;9779;51.756;7.450;2022-12-29T02:55:30;0.40;;;0.40;;
19291;SDS011;9779;51.756;7.450;2022-12-29T02:58:09;1.03;;;0.40;;
19291;SDS011;9779;51.756;7.450;2022-12-29T03:03:35;0.40;;;0.40;;
19291;SDS011;9779;51.756;7.450;2022-12-29T03:09:03;0.77;;;0.50;;
19291;SDS011;9779;51.756;7.450;2022-12-29T03:11:52;0.57;;;0.30;;
19291;SDS011;9779;51.756;7.450;2022-12-29T03:14:35;0.60;;;0.60;;
19291;SDS011;9779;51.756;7.450;2022-12-29T03:17:26;1.03;;;0.50;;
19291;SDS011;9779;51.756;7.450;2022-12-29T03:20:01;0.60;;;0.40;;
19291;SDS011;9779;51.756;7.450;2022-12-29T03:22:32;1.30;;;0.50;;
19291;SDS011;9779;51.756;7.450;2022-12-29T03:25:08;0.73;;;0.50;;
19291;SDS011;9779;51.756;7.450;2022-12-29T03:27:41;0.73;;;0.60;;
19291;SDS011;9779;51.756;7.450;2022-12-29T03:30:10;0.67;;;0.40;;
19291;SDS011;9779;51.756;7.450;2022-12-29T03:32:39;0.43;;;0.43;;
19291;SDS011;9779;51.756;7.450;2022-12-29T03:35:15;1.90;;;0.50;;
19291;SDS011;9779;51.756;7.450;2022-12-29T03:37:46;0.57;;;0.53;;
19291;SDS011;9779;51.756;7.450;2022-12-29T03:40:22;0.93;;;0.90;;
19291;SDS011;9779;51.756;7.450;2022-12-29T03:42:50;0.90;;;0.50;;
19291;SDS011;9779;51.756;7.450;2022-12-29T03:45:17;2.73;;;0.50;;
19291;SDS011;9779;51.756;7.450;2022-12-29T03:47:43;3.80;;;0.57;;
19291;SDS011;9779;51.756;7.450;2022-12-29T03:50:11;6.83;;;0.60;;
19291;SDS011;9779;51.756;7.450;2022-12-29T03:52:37;3.93;;;0.80;;
19291;SDS011;9779;51.756;7.450;2022-12-29T03:55:03;0.60;;;0.57;;
19291;SDS011;9779;51.756;7.450;2022-12-29T03:57:29;0.97;;;0.50;;
19291;SDS011;9779;51.756;7.450;2022-12-29T03:59:54;0.60;;;0.60;;
19291;SDS011;9779;51.756;7.450;2022-12-29T04:02:20;1.03;;;0.50;;
19291;SDS011;9779;51.756;7.450;2022-12-29T04:04:45;1.23;;;0.70;;
19291;SDS011;9779;51.756;7.450;2022-12-29T04:07:11;1.63;;;0.50;;
19291;SDS011;9779;51.756;7.450;2022-12-29T04:09:37;1.67;;;0.97;;
19291;SDS011;9779;51.756;7.450;2022-12-29T04:12:02;2.00;;;0.40;;
19291;SDS011;9779;51.756;7.450;2022-12-29T04:14:28;0.80;;;0.80;;
19291;SDS011;9779;51.756;7.450;2022-12-29T04:16:53;0.80;;;0.40;;
19291;SDS011;9779;51.756;7.450;2022-12-29T04:19:19;2.37;;;0.57;;
19291;SDS011;9779;51.756;7.450;2022-12-29T04:21:45;3.20;;;0.70;;
19291;SDS011;9779;51.756;7.450;2022-12-29T04:24:10;1.73;;;0.60;;
19291;SDS011;9779;51.756;7.450;2022-12-29T04:26:37;0.60;;;0.60;;
19291;SDS011;9779;51.756;7.450;2022-12-29T04:29:03;0.90;;;0.60;;
19291;SDS011;9779;51.756;7.450;2022-12-29T04:31:29;0.60;;;0.60;;
19291;SDS011;9779;51.756;7.450;2022-12-29T04:33:54;0.70;;;0.70;;
19291;SDS011;9779;51.756;7.450;2022-12-29T04:36:22;1.87;;;0.70;;
19291;SDS011;9779;51.756;7.450;2022-12-29T04:38:48;2.97;;;0.70;;
19291;SDS011;9779;51.756;7.450;2022-12-29T04:41:13;0.63;;;0.50;;
19291;SDS011;9779;51.756;7.450;2022-12-29T04:43:39;1.30;;;0.60;;
19291;SDS011;9779;51.756;7.450;2022-12-29T04:46:05;3.33;;;0.50;;
19291;SDS011;9779;51.756;7.450;2022-12-29T04:48:31;1.43;;;0.50;;
19291;SDS011;9779;51.756;7.450;2022-12-29T04:50:56;2.57;;;0.60;;
19291;SDS011;9779;51.756;7.450;2022-12-29T04:53:22;0.73;;;0.50;;
19291;SDS011;9779;51.756;7.450;2022-12-29T04:55:48;3.93;;;0.60;;
19291;SDS011;9779;51.756;7.450;2022-12-29T04:58:15;1.33;;;0.70;;
19291;SDS011;9779;51.756;7.450;2022-12-29T05:00:41;0.50;;;0.50;;
19291;SDS011;9779;51.756;7.450;2022-12-29T05:03:06;0.53;;;0.53;;
19291;SDS011;9779;51.756;7.450;2022-12-29T05:05:32;0.50;;;0.50;;
19291;SDS011;9779;51.756;7.450;2022-12-29T05:07:57;0.50;;;0.50;;
19291;SDS011;9779;51.756;7.450;2022-12-29T05:10:23;0.60;;;0.60;;
19291;SDS011;9779;51.756;7.450;2022-12-29T05:12:48;0.83;;;0.40;;
19291;SDS011;9779;51.756;7.450;2022-12-29T05:15:14;0.50;;;0.50;;
19291;SDS011;9779;51.756;7.450;2022-12-29T05:17:39;2.20;;;0.60;;
19291;SDS011;9779;51.756;7.450;2022-12-29T05:20:05;0.60;;;0.60;;
19291;SDS011;9779;51.756;7.450;2022-12-29T05:22:31;0.67;;;0.57;;
19291;SDS011;9779;51.756;7.450;2022-12-29T05:24:57;1.07;;;0.70;;
19291;SDS011;9779;51.756;7.450;2022-12-29T05:27:22;1.43;;;0.70;;
19291;SDS011;9779;51.756;7.450;2022-12-29T05:29:48;2.30;;;0.70;;
19291;SDS011;9779;51.756;7.450;2022-12-29T05:32:14;0.87;;;0.60;;
19291;SDS011;9779;51.756;7.450;2022-12-29T05:34:39;1.50;;;0.57;;
19291;SDS011;9779;51.756;7.450;2022-12-29T05:37:05;3.60;;;0.60;;
19291;SDS011;9779;51.756;7.450;2022-12-29T05:39:30;2.03;;;0.50;;
19291;SDS011;9779;51.756;7.450;2022-12-29T05:41:56;0.67;;;0.40;;
19291;SDS011;9779;51.756;7.450;2022-12-29T05:44:21;0.33;;;0.33;;
19291;SDS011;9779;51.756;7.450;2022-12-29T05:46:47;2.50;;;0.60;;
19291;SDS011;9779;51.756;7.450;2022-12-29T05:49:12;0.50;;;0.47;;
19291;SDS011;9779;51.756;7.450;2022-12-29T05:51:38;0.70;;;0.63;;
19291;SDS011;9779;51.756;7.450;2022-12-29T05:54:03;0.80;;;0.50;;
19291;SDS011;9779;51.756;7.450;2022-12-29T05:56:29;1.10;;;0.40;;
19291;SDS011;9779;51.756;7.450;2022-12-29T05:58:55;0.40;;;0.40;;
19291;SDS011;9779;51.756;7.450;2022-12-29T06:01:20;0.50;;;0.50;;
19291;SDS011;9779;51.756;7.450;2022-12-29T06:03:46;0.63;;;0.60;;
19291;SDS011;9779;51.756;7.450;2022-12-29T06:06:11;0.87;;;0.53;;
19291;SDS011;9779;51.756;7.450;2022-12-29T06:08:37;1.17;;;0.50;;
19291;SDS011;9779;51.756;7.450;2022-12-29T06:11:02;4.43;;;0.53;;
19291;SDS011;9779;51.756;7.450;2022-12-29T06:13:28;1.50;;;0.60;;
19291;SDS011;9779;51.756;7.450;2022-12-29T06:15:53;1.87;;;0.50;;
19291;SDS011;9779;51.756;7.450;2022-12-29T06:18:19;0.73;;;0.63;;
19291;SDS011;9779;51.756;7.450;2022-12-29T06:20:44;1.37;;;0.50;;
19291;SDS011;9779;51.756;7.450;2022-12-29T06:23:10;1.07;;;0.90;;
19291;SDS011;9779;51.756;7.450;2022-12-29T06:25:38;0.50;;;0.50;;
19291;SDS011;9779;51.756;7.450;2022-12-29T06:28:03;1.90;;;0.80;;
19291;SDS011;9779;51.756;7.450;2022-12-29T06:30:30;2.93;;;0.90;;
19291;SDS011;9779;51.756;7.450;2022-12-29T06:32:56;1.67;;;1.00;;
19291;SDS011;9779;51.756;7.450;2022-12-29T06:35:23;1.03;;;0.73;;
19291;SDS011;9779;51.756;7.450;2022-12-29T06:37:48;1.67;;;0.80;;
19291;SDS011;9779;51.756;7.450;2022-12-29T06:40:14;2.10;;;1.10;;
19291;SDS011;9779;51.756;7.450;2022-12-29T06:42:40;2.57;;;1.03;;
19291;SDS011;9779;51.756;7.450;2022-12-29T06:45:05;1.23;;;0.80;;
19291;SDS011;9779;51.756;7.450;2022-12-29T06:47:32;1.40;;;0.90;;
19291;SDS011;9779;51.756;7.450;2022-12-29T06:49:58;1.83;;;0.97;;
19291;SDS011;9779;51.756;7.450;2022-12-29T06:52:24;1.30;;;0.77;;
19291;SDS011;9779;51.756;7.450;2022-12-29T06:54:50;1.87;;;0.90;;
19291;SDS011;9779;51.756;7.450;2022-12-29T06:57:15;3.23;;;1.50;;
19291;SDS011;9779;51.756;7.450;2022-12-29T06:59:41;3.63;;;1.00;;
19291;SDS011;9779;51.756;7.450;2022-12-29T07:02:07;1.53;;;1.10;;
19291;SDS011;9779;51.756;7.450;2022-12-29T07:04:36;1.93;;;0.80;;
19291;SDS011;9779;51.756;7.450;2022-12-29T07:07:02;1.80;;;1.50;;
19291;SDS011;9779;51.756;7.450;2022-12-29T07:09:27;3.83;;;1.00;;
19291;SDS011;9779;51.756;7.450;2022-12-29T07:11:53;5.60;;;1.00;;
19291;SDS011;9779;51.756;7.450;2022-12-29T07:14:19;3.50;;;1.00;;
19291;SDS011;9779;51.756;7.450;2022-12-29T07:16:44;1.33;;;1.03;;
19291;SDS011;9779;51.756;7.450;2022-12-29T07:19:10;3.47;;;0.90;;
19291;SDS011;9779;51.756;7.450;2022-12-29T07:21:35;1.23;;;0.77;;
19291;SDS011;9779;51.756;7.450;2022-12-29T07:24:01;4.27;;;1.00;;
19291;SDS011;9779;51.756;7.450;2022-12-29T07:26:26;4.37;;;0.87;;
19291;SDS011;9779;51.756;7.450;2022-12-29T07:28:52;1.90;;;0.87;;
19291;SDS011;9779;51.756;7.450;2022-12-29T07:31:18;3.00;;;0.80;;
19291;SDS011;9779;51.756;7.450;2022-12-29T07:33:45;3.93;;;1.07;;
19291;SDS011;9779;51.756;7.450;2022-12-29T07:36:12;4.93;;;1.23;;
19291;SDS011;9779;51.756;7.450;2022-12-29T07:38:39;1.80;;;0.93;;
19291;SDS011;9779;51.756;7.450;2022-12-29T07:41:05;2.20;;;1.13;;
19291;SDS011;9779;51.756;7.450;2022-12-29T07:43:31;1.60;;;0.77;;
19291;SDS011;9779;51.756;7.450;2022-12-29T07:45:56;6.87;;;1.37;;
19291;SDS011;9779;51.756;7.450;2022-12-29T07:48:22;1.53;;;0.90;;
19291;SDS011;9779;51.756;7.450;2022-12-29T07:50:47;1.80;;;0.97;;
19291;SDS011;9779;51.756;7.450;2022-12-29T07:53:13;6.70;;;1.17;;
19291;SDS011;9779;51.756;7.450;2022-12-29T07:55:39;2.40;;;1.10;;
19291;SDS011;9779;51.756;7.450;2022-12-29T07:58:05;3.30;;;1.00;;
19291;SDS011;9779;51.756;7.450;2022-12-29T08:00:30;2.60;;;1.13;;
19291;SDS011;9779;51.756;7.450;2022-12-29T08:02:56;2.87;;;1.67;;
19291;SDS011;9779;51.756;7.450;2022-12-29T08:05:22;2.30;;;1.30;;
19291;SDS011;9779;51.756;7.450;2022-12-29T08:07:47;2.23;;;0.90;;
19291;SDS011;9779;51.756;7.450;2022-12-29T08:10:13;2.47;;;0.87;;
19291;SDS011;9779;51.756;7.450;2022-12-29T08:12:39;5.20;;;0.90;;
19291;SDS011;9779;51.756;7.450;2022-12-29T08:15:06;1.37;;;0.70;;
19291;SDS011;9779;51.756;7.450;2022-12-29T08:17:33;1.10;;;0.70;;
19291;SDS011;9779;51.756;7.450;2022-12-29T08:19:59;2.47;;;1.10;;
19291;SDS011;9779;51.756;7.450;2022-12-29T08:22:24;4.87;;;0.93;;
19291;SDS011;9779;51.756;7.450;2022-12-29T08:24:50;3.93;;;1.13;;
19291;SDS011;9779;51.756;7.450;2022-12-29T08:27:16;2.50;;;1.10;;
19291;SDS011;9779;51.756;7.450;2022-12-29T08:29:42;3.17;;;0.80;;
19291;SDS011;9779;51.756;7.450;2022-12-29T08:32:07;8.33;;;0.87;;
19291;SDS011;9779;51.756;7.450;2022-12-29T08:34:33;3.17;;;1.07;;
19291;SDS011;9779;51.756;7.450;2022-12-29T08:36:58;3.43;;;0.90;;
19291;SDS011;9779;51.756;7.450;2022-12-29T08:39:24;1.20;;;0.93;;
19291;SDS011;9779;51.756;7.450;2022-12-29T08:41:49;3.97;;;0.87;;
19291;SDS011;9779;51.756;7.450;2022-12-29T08:44:15;5.17;;;0.80;;
19291;SDS011;9779;51.756;7.450;2022-12-29T08:46:40;5.83;;;1.07;;
19291;SDS011;9779;51.756;7.450;2022-12-29T08:49:06;5.57;;;1.40;;
19291;SDS011;9779;51.756;7.450;2022-12-29T08:51:31;3.67;;;1.23;;
19291;SDS011;9779;51.756;7.450;2022-12-29T08:53:57;4.23;;;1.30;;
19291;SDS011;9779;51.756;7.450;2022-12-29T08:56:23;4.00;;;1.10;;
19291;SDS011;9779;51.756;7.450;2022-12-29T08:58:49;3.97;;;1.40;;
19291;SDS011;9779;51.756;7.450;2022-12-29T09:01:15;4.30;;;1.50;;
19291;SDS011;9779;51.756;7.450;2022-12-29T09:03:41;4.20;;;1.60;;
19291;SDS011;9779;51.756;7.450;2022-12-29T09:06:07;3.10;;;1.17;;
19291;SDS011;9779;51.756;7.450;2022-12-29T09:08:32;7.67;;;1.27;;
19291;SDS011;9779;51.756;7.450;2022-12-29T09:13:35;3.07;;;1.43;;
19291;SDS011;9779;51.756;7.450;2022-12-29T09:16:01;5.23;;;1.40;;
19291;SDS011;9779;51.756;7.450;2022-12-29T09:18:27;7.77;;;2.40;;
19291;SDS011;9779;51.756;7.450;2022-12-29T09:21:00;4.93;;;1.90;;
19291;SDS011;9779;51.756;7.450;2022-12-29T09:23:27;7.23;;;1.53;;
19291;SDS011;9779;51.756;7.450;2022-12-29T09:25:53;3.73;;;1.30;;
19291;SDS011;9779;51.756;7.450;2022-12-29T09:28:19;3.93;;;1.47;;
19291;SDS011;9779;51.756;7.450;2022-12-29T09:30:46;3.93;;;1.17;;
19291;SDS011;9779;51.756;7.450;2022-12-29T09:33:12;6.23;;;1.23;;
19291;SDS011;9779;51.756;7.450;2022-12-29T09:35:41;4.80;;;1.03;;
19291;SDS011;9779;51.756;7.450;2022-12-29T09:38:07;5.70;;;1.63;;
19291;SDS011;9779;51.756;7.450;2022-12-29T09:40:33;2.93;;;1.20;;
19291;SDS011;9779;51.756;7.450;2022-12-29T09:45:48;3.87;;;1.40;;
19291;SDS011;9779;51.756;7.450;2022-12-29T09:48:19;4.73;;;1.27;;
19291;SDS011;9779;51.756;7.450;2022-12-29T09:50:52;2.13;;;1.40;;
19291;SDS011;9779;51.756;7.450;2022-12-29T09:53:27;2.80;;;1.03;;
19291;SDS011;9779;51.756;7.450;2022-12-29T09:55:57;6.77;;;1.33;;
19291;SDS011;9779;51.756;7.450;2022-12-29T09:58:30;1.83;;;1.10;;
19291;SDS011;9779;51.756;7.450;2022-12-29T10:01:06;2.30;;;1.03;;
19291;SDS011;9779;51.756;7.450;2022-12-29T10:03:48;3.23;;;1.43;;
19291;SDS011;9779;51.756;7.450;2022-12-29T10:09:17;4.93;;;1.23;;
19291;SDS011;9779;51.756;7.450;2022-12-29T10:17:36;14.30;;;1.70;;
19291;SDS011;9779;51.756;7.450;2022-12-29T10:20:19;3.47;;;1.27;;
19291;SDS011;9779;51.756;7.450;2022-12-29T10:25:22;1.33;;;0.90;;
19291;SDS011;9779;51.756;7.450;2022-12-29T10:27:50;5.70;;;1.30;;
19291;SDS011;9779;51.756;7.450;2022-12-29T10:30:19;6.57;;;2.10;;
19291;SDS011;9779;51.756;7.450;2022-12-29T10:35:20;3.33;;;1.30;;
19291;SDS011;9779;51.756;7.450;2022-12-29T10:37:53;6.10;;;1.20;;
19291;SDS011;9779;51.756;7.450;2022-12-29T10:43:29;3.50;;;0.90;;
19291;SDS011;9779;51.756;7.450;2022-12-29T10:45:58;3.93;;;1.37;;
19291;SDS011;9779;51.756;7.450;2022-12-29T10:48:30;5.83;;;1.50;;
19291;SDS011;9779;51.756;7.450;2022-12-29T10:50:58;8.47;;;1.40;;
19291;SDS011;9779;51.756;7.450;2022-12-29T10:53:38;5.33;;;1.50;;
19291;SDS011;9779;51.756;7.450;2022-12-29T10:56:15;2.13;;;1.07;;
19291;SDS011;9779;51.756;7.450;2022-12-29T10:58:51;6.93;;;1.47;;
19291;SDS011;9779;51.756;7.450;2022-12-29T11:01:20;8.53;;;1.40;;
19291;SDS011;9779;51.756;7.450;2022-12-29T11:03:48;4.30;;;1.10;;
19291;SDS011;9779;51.756;7.450;2022-12-29T11:06:24;3.10;;;1.10;;
19291;SDS011;9779;51.756;7.450;2022-12-29T11:09:12;7.33;;;1.40;;
19291;SDS011;9779;51.756;7.450;2022-12-29T11:11:47;4.07;;;0.93;;
19291;SDS011;9779;51.756;7.450;2022-12-29T11:14:14;2.90;;;1.17;;
19291;SDS011;9779;51.756;7.450;2022-12-29T11:16:43;6.33;;;1.40;;
19291;SDS011;9779;51.756;7.450;2022-12-29T11:19:23;4.07;;;1.33;;
19291;SDS011;9779;51.756;7.450;2022-12-29T11:21:51;4.57;;;1.07;;
19291;SDS011;9779;51.756;7.450;2022-12-29T11:24:29;3.70;;;1.23;;
19291;SDS011;9779;51.756;7.450;2022-12-29T11:26:55;7.87;;;1.53;;
19291;SDS011;9779;51.756;7.450;2022-12-29T11:29:47;3.87;;;1.30;;
19291;SDS011;9779;51.756;7.450;2022-12-29T11:34:45;6.50;;;1.47;;
19291;SDS011;9779;51.756;7.450;2022-12-29T11:42:35;5.13;;;1.50;;
19291;SDS011;9779;51.756;7.450;2022-12-29T11:45:06;4.17;;;1.23;;
19291;SDS011;9779;51.756;7.450;2022-12-29T11:47:41;4.27;;;1.20;;
19291;SDS011;9779;51.756;7.450;2022-12-29T11:50:15;4.67;;;1.13;;
19291;SDS011;9779;51.756;7.450;2022-12-29T11:52:43;5.87;;;1.73;;
19291;SDS011;9779;51.756;7.450;2022-12-29T11:55:16;3.57;;;1.10;;
19291;SDS011;9779;51.756;7.450;2022-12-29T11:57:48;5.57;;;1.50;;
19291;SDS011;9779;51.756;7.450;2022-12-29T12:02:58;4.17;;;1.63;;
19291;SDS011;9779;51.756;7.450;2022-12-29T12:05:51;5.13;;;1.83;;
19291;SDS011;9779;51.756;7.450;2022-12-29T12:11:14;4.13;;;1.87;;
19291;SDS011;9779;51.756;7.450;2022-12-29T12:16:21;4.63;;;1.67;;
19291;SDS011;9779;51.756;7.450;2022-12-29T12:18:53;9.77;;;1.77;;
19291;SDS011;9779;51.756;7.450;2022-12-29T12:21:39;8.43;;;2.37;;
19291;SDS011;9779;51.756;7.450;2022-12-29T12:27:08;5.70;;;1.37;;
19291;SDS011;9779;51.756;7.450;2022-12-29T12:35:31;3.97;;;1.60;;
19291;SDS011;9779;51.756;7.450;2022-12-29T12:41:16;8.37;;;2.47;;
19291;SDS011;9779;51.756;7.450;2022-12-29T12:43:51;4.27;;;1.70;;
19291;SDS011;9779;51.756;7.450;2022-12-29T12:52:30;6.97;;;1.40;;
19291;SDS011;9779;51.756;7.450;2022-12-29T13:06:12;6.60;;;1.70;;
19291;SDS011;9779;51.756;7.450;2022-12-29T13:17:05;5.07;;;2.10;;
19291;SDS011;9779;51.756;7.450;2022-12-29T13:22:34;3.60;;;1.67;;
19291;SDS011;9779;51.756;7.450;2022-12-29T13:30:26;8.03;;;1.77;;
19291;SDS011;9779;51.756;7.450;2022-12-29T13:33:29;4.13;;;1.10;;
19291;SDS011;9779;51.756;7.450;2022-12-29T13:36:05;4.10;;;1.60;;
19291;SDS011;9779;51.756;7.450;2022-12-29T13:38:45;6.97;;;1.60;;
19291;SDS011;9779;51.756;7.450;2022-12-29T13:43:54;6.10;;;2.23;;
19291;SDS011;9779;51.756;7.450;2022-12-29T13:46:23;4.13;;;1.50;;
19291;SDS011;9779;51.756;7.450;2022-12-29T13:48:53;5.07;;;1.80;;
19291;SDS011;9779;51.756;7.450;2022-12-29T13:51:24;9.00;;;2.03;;
19291;SDS011;9779;51.756;7.450;2022-12-29T13:53:56;5.67;;;1.80;;
19291;SDS011;9779;51.756;7.450;2022-12-29T13:56:30;8.60;;;4.00;;
19291;SDS011;9779;51.756;7.450;2022-12-29T13:59:06;5.67;;;2.27;;
19291;SDS011;9779;51.756;7.450;2022-12-29T14:01:34;4.60;;;1.80;;
19291;SDS011;9779;51.756;7.450;2022-12-29T14:04:10;6.70;;;1.67;;
19291;SDS011;9779;51.756;7.450;2022-12-29T14:06:46;6.83;;;2.90;;
19291;SDS011;9779;51.756;7.450;2022-12-29T14:17:37;2.63;;;1.27;;
19291;SDS011;9779;51.756;7.450;2022-12-29T14:20:05;4.20;;;1.70;;
19291;SDS011;9779;51.756;7.450;2022-12-29T14:22:55;5.23;;;1.27;;
19291;SDS011;9779;51.756;7.450;2022-12-29T14:28:33;5.60;;;1.40;;
19291;SDS011;9779;51.756;7.450;2022-12-29T14:31:02;4.00;;;1.10;;
19291;SDS011;9779;51.756;7.450;2022-12-29T14:33:30;4.70;;;1.53;;
19291;SDS011;9779;51.756;7.450;2022-12-29T14:36:18;3.90;;;1.63;;
19291;SDS011;9779;51.756;7.450;2022-12-29T14:38:58;6.57;;;2.90;;
19291;SDS011;9779;51.756;7.450;2022-12-29T14:41:27;2.93;;;1.53;;
19291;SDS011;9779;51.756;7.450;2022-12-29T14:49:32;3.83;;;2.07;;
19291;SDS011;9779;51.756;7.450;2022-12-29T14:52:24;6.23;;;3.27;;
19291;SDS011;9779;51.756;7.450;2022-12-29T14:54:56;7.50;;;1.70;;
19291;SDS011;9779;51.756;7.450;2022-12-29T14:57:35;4.10;;;1.63;;
19291;SDS011;9779;51.756;7.450;2022-12-29T15:00:06;4.33;;;1.33;;
19291;SDS011;9779;51.756;7.450;2022-12-29T15:02:40;6.70;;;2.03;;
19291;SDS011;9779;51.756;7.450;2022-12-29T15:05:26;3.80;;;1.60;;
19291;SDS011;9779;51.756;7.450;2022-12-29T15:07:58;4.00;;;1.40;;
19291;SDS011;9779;51.756;7.450;2022-12-29T15:10:25;4.47;;;1.47;;
19291;SDS011;9779;51.756;7.450;2022-12-29T15:13:00;7.60;;;1.73;;
19291;SDS011;9779;51.756;7.450;2022-12-29T15:15:35;7.70;;;2.47;;
19291;SDS011;9779;51.756;7.450;2022-12-29T15:20:49;6.23;;;2.43;;
19291;SDS011;9779;51.756;7.450;2022-12-29T15:23:17;9.00;;;3.90;;
19291;SDS011;9779;51.756;7.450;2022-12-29T15:25:47;4.20;;;2.80;;
19291;SDS011;9779;51.756;7.450;2022-12-29T15:28:21;6.20;;;1.90;;
19291;SDS011;9779;51.756;7.450;2022-12-29T15:30:52;5.27;;;2.30;;
19291;SDS011;9779;51.756;7.450;2022-12-29T15:33:21;4.00;;;1.50;;
19291;SDS011;9779;51.756;7.450;2022-12-29T15:35:50;6.23;;;2.30;;
19291;SDS011;9779;51.756;7.450;2022-12-29T15:38:35;3.97;;;1.40;;
19291;SDS011;9779;51.756;7.450;2022-12-29T15:41:02;6.37;;;2.90;;
19291;SDS011;9779;51.756;7.450;2022-12-29T15:43:34;6.97;;;2.17;;
19291;SDS011;9779;51.756;7.450;2022-12-29T15:46:21;8.13;;;3.43;;
19291;SDS011;9779;51.756;7.450;2022-12-29T15:48:47;6.57;;;5.27;;
19291;SDS011;9779;51.756;7.450;2022-12-29T15:51:25;5.77;;;3.80;;
19291;SDS011;9779;51.756;7.450;2022-12-29T15:53:55;8.10;;;2.67;;
19291;SDS011;9779;51.756;7.450;2022-12-29T15:56:22;9.53;;;2.40;;
19291;SDS011;9779;51.756;7.450;2022-12-29T15:58:48;7.40;;;1.97;;
19291;SDS011;9779;51.756;7.450;2022-12-29T16:01:20;5.53;;;2.80;;
19291;SDS011;9779;51.756;7.450;2022-12-29T16:03:52;5.73;;;1.60;;
19291;SDS011;9779;51.756;7.450;2022-12-29T16:06:29;4.17;;;2.40;;
19291;SDS011;9779;51.756;7.450;2022-12-29T16:11:26;9.60;;;2.27;;
19291;SDS011;9779;51.756;7.450;2022-12-29T16:13:55;2.53;;;1.40;;
19291;SDS011;9779;51.756;7.450;2022-12-29T16:16:24;3.93;;;1.93;;
19291;SDS011;9779;51.756;7.450;2022-12-29T16:18:53;4.90;;;2.03;;
19291;SDS011;9779;51.756;7.450;2022-12-29T16:21:21;5.53;;;2.00;;
19291;SDS011;9779;51.756;7.450;2022-12-29T16:23:52;2.47;;;1.57;;
19291;SDS011;9779;51.756;7.450;2022-12-29T16:26:20;7.87;;;2.40;;
19291;SDS011;9779;51.756;7.450;2022-12-29T16:28:49;3.53;;;1.83;;
19291;SDS011;9779;51.756;7.450;2022-12-29T16:33:50;6.97;;;3.17;;
19291;SDS011;9779;51.756;7.450;2022-12-29T16:36:39;4.00;;;1.60;;
19291;SDS011;9779;51.756;7.450;2022-12-29T16:39:27;7.23;;;1.67;;
19291;SDS011;9779;51.756;7.450;2022-12-29T16:47:43;9.23;;;4.43;;
19291;SDS011;9779;51.756;7.450;2022-12-29T16:50:29;3.43;;;1.97;;
19291;SDS011;9779;51.756;7.450;2022-12-29T16:52:54;4.47;;;3.00;;
19291;SDS011;9779;51.756;7.450;2022-12-29T16:55:20;7.20;;;2.17;;
19291;SDS011;9779;51.756;7.450;2022-12-29T16:57:46;5.43;;;2.23;;
19291;SDS011;9779;51.756;7.450;2022-12-29T17:00:18;12.53;;;3.77;;
19291;SDS011;9779;51.756;7.450;2022-12-29T17:02:45;7.33;;;2.40;;
19291;SDS011;9779;51.756;7.450;2022-12-29T17:05:15;3.67;;;2.20;;
19291;SDS011;9779;51.756;7.450;2022-12-29T17:07:42;7.90;;;1.93;;
19291;SDS011;9779;51.756;7.450;2022-12-29T17:10:08;4.13;;;1.53;;
19291;SDS011;9779;51.756;7.450;2022-12-29T17:12:34;2.93;;;1.53;;
19291;SDS011;9779;51.756;7.450;2022-12-29T17:15:02;5.43;;;1.93;;
19291;SDS011;9779;51.756;7.450;2022-12-29T17:17:47;4.60;;;1.90;;
19291;SDS011;9779;51.756;7.450;2022-12-29T17:20:16;6.17;;;1.80;;
19291;SDS011;9779;51.756;7.450;2022-12-29T17:22:44;5.97;;;1.87;;
19291;SDS011;9779;51.756;7.450;2022-12-29T17:25:11;3.93;;;1.93;;
19291;SDS011;9779;51.756;7.450;2022-12-29T17:27:49;2.83;;;1.67;;
19291;SDS011;9779;51.756;7.450;2022-12-29T17:30:29;3.50;;;1.90;;
19291;SDS011;9779;51.756;7.450;2022-12-29T17:33:02;5.53;;;1.50;;
19291;SDS011;9779;51.756;7.450;2022-12-29T17:35:30;4.93;;;2.07;;
19291;SDS011;9779;51.756;7.450;2022-12-29T17:37:55;3.10;;;1.57;;